SAS1647 EKCH-EDDH
Flight info
| Callsign | SAS1647 |
|---|---|
| Flight time | 0h 46m |
| Altitude | 24000 |
| Route | NEXEN T503 MICOS/N0418F280 N850 BOGMU BOGMU5A |
| Aircraft | MD82/M-SDFGIRWY/S |
Departure
| Time | 2026-04-30 20:19 |
|---|---|
| Airport | Copenhagen Kastrup Airport (EKCH) |
Arrival
| Time | 2026-04-30 21:06 |
|---|---|
| Airport | Hamburg Helmut Schmidt Airport (EDDH) |
| Time | Latitude | Longitude | Altitude | Speed | Heading |
|---|---|---|---|---|---|
| 2026-04-30 19:45 | 55.62363 | 12.65061 | 22 ft | 0 kts | 285° |
| 2026-04-30 20:06 | 55.62363 | 12.65062 | 22 ft | 2 kts | 285° |
| 2026-04-30 20:07 | 55.62360 | 12.65090 | 25 ft | 2 kts | 275° |
| 2026-04-30 20:07 | 55.62361 | 12.65120 | 25 ft | 2 kts | 239° |
| 2026-04-30 20:07 | 55.62383 | 12.65138 | 25 ft | 1 kts | 182° |
| 2026-04-30 20:11 | 55.62380 | 12.65138 | 21 ft | 3 kts | 182° |
| 2026-04-30 20:12 | 55.62259 | 12.65140 | 23 ft | 11 kts | 150° |
| 2026-04-30 20:12 | 55.62178 | 12.65160 | 24 ft | 11 kts | 197° |
| 2026-04-30 20:12 | 55.62117 | 12.65084 | 23 ft | 11 kts | 224° |
| 2026-04-30 20:13 | 55.62049 | 12.64992 | 21 ft | 14 kts | 211° |
| 2026-04-30 20:13 | 55.61960 | 12.64898 | 20 ft | 16 kts | 212° |
| 2026-04-30 20:13 | 55.61858 | 12.64783 | 19 ft | 17 kts | 213° |
| 2026-04-30 20:13 | 55.61762 | 12.64673 | 22 ft | 16 kts | 213° |
| 2026-04-30 20:14 | 55.61669 | 12.64563 | 23 ft | 16 kts | 214° |
| 2026-04-30 20:14 | 55.61578 | 12.64454 | 26 ft | 16 kts | 214° |
| 2026-04-30 20:14 | 55.61484 | 12.64339 | 25 ft | 17 kts | 214° |
| 2026-04-30 20:14 | 55.61377 | 12.64227 | 20 ft | 19 kts | 208° |
| 2026-04-30 20:15 | 55.61258 | 12.64100 | 19 ft | 21 kts | 214° |
| 2026-04-30 20:15 | 55.61140 | 12.63954 | 20 ft | 20 kts | 215° |
| 2026-04-30 20:15 | 55.61022 | 12.63816 | 21 ft | 20 kts | 214° |
| 2026-04-30 20:15 | 55.60909 | 12.63679 | 22 ft | 20 kts | 214° |
| 2026-04-30 20:16 | 55.60790 | 12.63541 | 21 ft | 21 kts | 210° |
| 2026-04-30 20:16 | 55.60657 | 12.63400 | 19 ft | 22 kts | 214° |
| 2026-04-30 20:16 | 55.60537 | 12.63228 | 20 ft | 22 kts | 221° |
| 2026-04-30 20:16 | 55.60446 | 12.63121 | 23 ft | 12 kts | 179° |
| 2026-04-30 20:17 | 55.60381 | 12.63202 | 23 ft | 12 kts | 131° |
| 2026-04-30 20:17 | 55.60347 | 12.63320 | 26 ft | 10 kts | 88° |
| 2026-04-30 20:17 | 55.60384 | 12.63421 | 24 ft | 2 kts | 40° |
| 2026-04-30 20:18 | 55.60400 | 12.63445 | 23 ft | 11 kts | 40° |
| 2026-04-30 20:19 | 55.60539 | 12.63654 | 22 ft | 52 kts | 40° |
| 2026-04-30 20:19 | 55.61003 | 12.64361 | 19 ft | 123 kts | 43° |
| 2026-04-30 20:19 | 55.61812 | 12.65525 | 141 ft | 168 kts | 38° |
| 2026-04-30 20:19 | 55.62692 | 12.66863 | 1061 ft | 157 kts | 38° |
| 2026-04-30 20:20 | 55.63524 | 12.68167 | 1736 ft | 175 kts | 37° |
| 2026-04-30 20:20 | 55.64554 | 12.69724 | 1902 ft | 211 kts | 37° |
| 2026-04-30 20:20 | 55.65740 | 12.71529 | 1795 ft | 242 kts | 38° |
| 2026-04-30 20:20 | 55.67053 | 12.73554 | 2021 ft | 249 kts | 38° |
| 2026-04-30 20:21 | 55.68351 | 12.75591 | 2443 ft | 250 kts | 39° |
| 2026-04-30 20:21 | 55.69663 | 12.77644 | 2790 ft | 253 kts | 40° |
| 2026-04-30 20:21 | 55.70982 | 12.79711 | 3110 ft | 255 kts | 40° |
| 2026-04-30 20:21 | 55.72313 | 12.81835 | 3438 ft | 258 kts | 44° |
| 2026-04-30 20:22 | 55.73234 | 12.84542 | 3742 ft | 261 kts | 74° |
| 2026-04-30 20:22 | 55.73232 | 12.87746 | 4067 ft | 264 kts | 105° |
| 2026-04-30 20:22 | 55.72341 | 12.90587 | 4401 ft | 267 kts | 127° |
| 2026-04-30 20:22 | 55.71133 | 12.93105 | 4693 ft | 269 kts | 130° |
| 2026-04-30 20:23 | 55.69782 | 12.95418 | 4998 ft | 273 kts | 146° |
| 2026-04-30 20:23 | 55.67993 | 12.96497 | 5289 ft | 277 kts | 175° |
| 2026-04-30 20:23 | 55.66102 | 12.95900 | 5532 ft | 281 kts | 205° |
| 2026-04-30 20:23 | 55.64437 | 12.94079 | 5768 ft | 283 kts | 216° |
| 2026-04-30 20:24 | 55.62847 | 12.92011 | 5998 ft | 285 kts | 217° |
| 2026-04-30 20:24 | 55.61263 | 12.89871 | 6261 ft | 287 kts | 218° |
| 2026-04-30 20:24 | 55.59687 | 12.87697 | 6501 ft | 288 kts | 218° |
| 2026-04-30 20:24 | 55.58080 | 12.85481 | 6783 ft | 297 kts | 218° |
| 2026-04-30 20:25 | 55.54819 | 12.81106 | 7927 ft | 293 kts | 217° |
| 2026-04-30 20:25 | 55.53174 | 12.78966 | 8411 ft | 296 kts | 216° |
| 2026-04-30 20:26 | 55.49808 | 12.74668 | 9323 ft | 300 kts | 216° |
| 2026-04-30 20:26 | 55.46376 | 12.70341 | 10185 ft | 311 kts | 216° |
| 2026-04-30 20:26 | 55.44567 | 12.68066 | 10391 ft | 326 kts | 216° |
| 2026-04-30 20:27 | 55.40763 | 12.63274 | 11046 ft | 342 kts | 216° |
| 2026-04-30 20:27 | 55.37581 | 12.57084 | 11980 ft | 344 kts | 237° |
| 2026-04-30 20:28 | 55.34887 | 12.49904 | 12528 ft | 366 kts | 238° |
| 2026-04-30 20:28 | 55.32030 | 12.42231 | 13247 ft | 385 kts | 237° |
| 2026-04-30 20:29 | 55.29033 | 12.34380 | 14487 ft | 390 kts | 236° |
| 2026-04-30 20:30 | 55.24395 | 12.22530 | 16177 ft | 397 kts | 236° |
| 2026-04-30 20:30 | 55.19367 | 12.10770 | 17846 ft | 408 kts | 220° |
| 2026-04-30 20:31 | 55.12398 | 12.01958 | 19429 ft | 417 kts | 215° |
| 2026-04-30 20:32 | 55.05246 | 11.93137 | 21006 ft | 423 kts | 216° |
| 2026-04-30 20:32 | 55.00471 | 11.87078 | 22244 ft | 422 kts | 217° |
| 2026-04-30 20:33 | 54.98113 | 11.84068 | 22927 ft | 420 kts | 217° |
| 2026-04-30 20:33 | 54.93363 | 11.78015 | 23860 ft | 426 kts | 217° |
| 2026-04-30 20:33 | 54.90963 | 11.74969 | 24154 ft | 433 kts | 217° |
| 2026-04-30 20:34 | 54.86049 | 11.68757 | 24347 ft | 436 kts | 217° |
| 2026-04-30 20:34 | 54.81141 | 11.62591 | 24391 ft | 431 kts | 217° |
| 2026-04-30 20:35 | 54.78704 | 11.59548 | 24402 ft | 430 kts | 216° |
| 2026-04-30 20:35 | 54.76280 | 11.56542 | 24408 ft | 429 kts | 216° |
| 2026-04-30 20:35 | 54.71418 | 11.50516 | 24411 ft | 430 kts | 216° |
| 2026-04-30 20:36 | 54.69013 | 11.47528 | 24410 ft | 431 kts | 216° |
| 2026-04-30 20:36 | 54.66588 | 11.44511 | 24415 ft | 431 kts | 216° |
| 2026-04-30 20:36 | 54.61713 | 11.38449 | 24414 ft | 431 kts | 216° |
| 2026-04-30 20:37 | 54.59276 | 11.35425 | 24416 ft | 432 kts | 216° |
| 2026-04-30 20:37 | 54.56810 | 11.32371 | 24413 ft | 432 kts | 216° |
| 2026-04-30 20:37 | 54.54364 | 11.29357 | 24415 ft | 432 kts | 216° |
| 2026-04-30 20:37 | 54.51906 | 11.26363 | 24415 ft | 432 kts | 216° |
| 2026-04-30 20:38 | 54.49456 | 11.23396 | 24413 ft | 431 kts | 216° |
| 2026-04-30 20:38 | 54.47828 | 11.21427 | 24414 ft | 431 kts | 216° |
| 2026-04-30 20:38 | 54.45353 | 11.18433 | 24415 ft | 430 kts | 216° |
| 2026-04-30 20:39 | 54.41214 | 11.11232 | 24425 ft | 426 kts | 246° |
| 2026-04-30 20:39 | 54.40083 | 11.06551 | 24421 ft | 425 kts | 250° |
| 2026-04-30 20:39 | 54.38794 | 11.01956 | 24207 ft | 433 kts | 240° |
| 2026-04-30 20:40 | 54.35097 | 10.93699 | 22661 ft | 437 kts | 229° |
| 2026-04-30 20:40 | 54.33022 | 10.89893 | 21878 ft | 435 kts | 227° |
| 2026-04-30 20:40 | 54.30915 | 10.86201 | 21107 ft | 433 kts | 226° |
| 2026-04-30 20:41 | 54.26680 | 10.78923 | 19632 ft | 430 kts | 225° |
| 2026-04-30 20:41 | 54.24358 | 10.75726 | 18919 ft | 427 kts | 208° |
| 2026-04-30 20:41 | 54.21619 | 10.73915 | 18152 ft | 422 kts | 189° |
| 2026-04-30 20:41 | 54.18718 | 10.73670 | 17369 ft | 413 kts | 170° |
| 2026-04-30 20:42 | 54.15992 | 10.74952 | 16603 ft | 403 kts | 152° |
| 2026-04-30 20:42 | 54.13455 | 10.76924 | 15848 ft | 402 kts | 160° |
| 2026-04-30 20:42 | 54.07938 | 10.76574 | 14414 ft | 406 kts | 198° |
| 2026-04-30 20:43 | 54.05363 | 10.74619 | 13637 ft | 404 kts | 205° |
| 2026-04-30 20:43 | 54.02923 | 10.72296 | 12962 ft | 398 kts | 209° |
| 2026-04-30 20:43 | 54.00610 | 10.69837 | 12528 ft | 386 kts | 211° |
| 2026-04-30 20:44 | 53.96158 | 10.64808 | 12165 ft | 379 kts | 212° |
| 2026-04-30 20:44 | 53.93982 | 10.62334 | 12222 ft | 374 kts | 212° |
| 2026-04-30 20:44 | 53.89745 | 10.57593 | 12483 ft | 356 kts | 211° |
| 2026-04-30 20:45 | 53.85564 | 10.53017 | 11864 ft | 357 kts | 211° |
| 2026-04-30 20:45 | 53.83497 | 10.50774 | 11656 ft | 348 kts | 211° |
| 2026-04-30 20:45 | 53.81511 | 10.48619 | 11587 ft | 330 kts | 211° |
| 2026-04-30 20:46 | 53.76095 | 10.42748 | 10984 ft | 299 kts | 210° |
| 2026-04-30 20:46 | 53.74363 | 10.40802 | 10557 ft | 300 kts | 219° |
| 2026-04-30 20:47 | 53.71544 | 10.35607 | 9639 ft | 300 kts | 229° |
| 2026-04-30 20:47 | 53.70206 | 10.32914 | 9165 ft | 300 kts | 229° |
| 2026-04-30 20:48 | 53.67560 | 10.27496 | 8262 ft | 299 kts | 229° |
| 2026-04-30 20:48 | 53.66251 | 10.24779 | 7844 ft | 297 kts | 229° |
| 2026-04-30 20:48 | 53.64967 | 10.22101 | 7627 ft | 288 kts | 229° |
| 2026-04-30 20:48 | 53.63733 | 10.19516 | 7535 ft | 276 kts | 229° |
| 2026-04-30 20:49 | 53.62557 | 10.17040 | 7474 ft | 267 kts | 229° |
| 2026-04-30 20:49 | 53.61402 | 10.14605 | 7263 ft | 263 kts | 229° |
| 2026-04-30 20:49 | 53.60277 | 10.12225 | 7060 ft | 259 kts | 229° |
| 2026-04-30 20:50 | 53.58063 | 10.07526 | 6622 ft | 253 kts | 229° |
| 2026-04-30 20:50 | 53.56971 | 10.05208 | 6327 ft | 253 kts | 229° |
| 2026-04-30 20:50 | 53.55881 | 10.02901 | 6084 ft | 250 kts | 229° |
| 2026-04-30 20:50 | 53.54801 | 10.00616 | 5797 ft | 249 kts | 229° |
| 2026-04-30 20:51 | 53.53724 | 9.98344 | 5527 ft | 247 kts | 229° |
| 2026-04-30 20:51 | 53.51579 | 9.93830 | 5020 ft | 244 kts | 229° |
| 2026-04-30 20:51 | 53.50537 | 9.91645 | 4769 ft | 242 kts | 229° |
| 2026-04-30 20:52 | 53.49486 | 9.89455 | 4515 ft | 240 kts | 229° |
| 2026-04-30 20:52 | 53.48463 | 9.87332 | 4278 ft | 237 kts | 229° |
| 2026-04-30 20:52 | 53.46417 | 9.83105 | 4061 ft | 236 kts | 229° |
| 2026-04-30 20:53 | 53.45360 | 9.80930 | 4026 ft | 239 kts | 229° |
| 2026-04-30 20:53 | 53.44304 | 9.78757 | 4009 ft | 241 kts | 229° |
| 2026-04-30 20:53 | 53.43240 | 9.76569 | 4000 ft | 242 kts | 229° |
| 2026-04-30 20:54 | 53.41117 | 9.72210 | 3990 ft | 243 kts | 229° |
| 2026-04-30 20:54 | 53.40036 | 9.69990 | 3986 ft | 243 kts | 229° |
| 2026-04-30 20:54 | 53.38966 | 9.67792 | 3984 ft | 243 kts | 229° |
| 2026-04-30 20:55 | 53.36831 | 9.63400 | 3981 ft | 243 kts | 229° |
| 2026-04-30 20:55 | 53.35767 | 9.61209 | 3975 ft | 243 kts | 229° |
| 2026-04-30 20:55 | 53.34718 | 9.59046 | 3978 ft | 242 kts | 229° |
| 2026-04-30 20:56 | 53.32580 | 9.54642 | 3974 ft | 242 kts | 229° |
| 2026-04-30 20:56 | 53.31593 | 9.52361 | 3965 ft | 244 kts | 246° |
| 2026-04-30 20:56 | 53.32449 | 9.47298 | 3989 ft | 248 kts | 329° |
| 2026-04-30 20:57 | 53.34073 | 9.46565 | 3984 ft | 244 kts | 9° |
| 2026-04-30 20:57 | 53.35690 | 9.47248 | 3977 ft | 236 kts | 21° |
| 2026-04-30 20:57 | 53.37174 | 9.48228 | 3973 ft | 223 kts | 35° |
| 2026-04-30 20:58 | 53.39374 | 9.51419 | 3964 ft | 193 kts | 42° |
| 2026-04-30 20:58 | 53.40347 | 9.52894 | 3964 ft | 185 kts | 50° |
| 2026-04-30 20:58 | 53.41170 | 9.54544 | 3981 ft | 185 kts | 56° |
| 2026-04-30 20:58 | 53.41946 | 9.56262 | 3989 ft | 186 kts | 55° |
| 2026-04-30 20:59 | 53.43594 | 9.59628 | 3984 ft | 187 kts | 52° |
| 2026-04-30 20:59 | 53.44437 | 9.61293 | 3984 ft | 187 kts | 52° |
| 2026-04-30 21:00 | 53.46107 | 9.64632 | 3984 ft | 187 kts | 52° |
| 2026-04-30 21:00 | 53.47767 | 9.67966 | 3989 ft | 186 kts | 52° |
| 2026-04-30 21:01 | 53.49429 | 9.71315 | 3978 ft | 187 kts | 52° |
| 2026-04-30 21:01 | 53.50272 | 9.73020 | 3700 ft | 189 kts | 52° |
| 2026-04-30 21:01 | 53.51943 | 9.76387 | 3165 ft | 186 kts | 52° |
| 2026-04-30 21:02 | 53.52735 | 9.77983 | 2972 ft | 172 kts | 52° |
| 2026-04-30 21:02 | 53.53480 | 9.79485 | 2718 ft | 163 kts | 52° |
| 2026-04-30 21:02 | 53.54179 | 9.80894 | 2470 ft | 148 kts | 52° |
| 2026-04-30 21:02 | 53.54803 | 9.82154 | 2239 ft | 137 kts | 52° |
| 2026-04-30 21:03 | 53.55403 | 9.83368 | 2024 ft | 131 kts | 52° |
| 2026-04-30 21:03 | 53.55974 | 9.84523 | 1876 ft | 128 kts | 53° |
| 2026-04-30 21:03 | 53.56546 | 9.85683 | 1750 ft | 128 kts | 53° |
| 2026-04-30 21:03 | 53.57115 | 9.86841 | 1599 ft | 128 kts | 53° |
| 2026-04-30 21:04 | 53.57685 | 9.87988 | 1448 ft | 128 kts | 52° |
| 2026-04-30 21:04 | 53.58257 | 9.89103 | 1306 ft | 128 kts | 51° |
| 2026-04-30 21:04 | 53.59433 | 9.91365 | 1033 ft | 129 kts | 53° |
| 2026-04-30 21:05 | 53.59994 | 9.92608 | 800 ft | 137 kts | 53° |
| 2026-04-30 21:05 | 53.60596 | 9.93815 | 624 ft | 133 kts | 51° |
| 2026-04-30 21:05 | 53.61176 | 9.95018 | 359 ft | 136 kts | 50° |
| 2026-04-30 21:05 | 53.61767 | 9.96237 | 112 ft | 132 kts | 50° |
| 2026-04-30 21:06 | 53.62322 | 9.97372 | 49 ft | 115 kts | 50° |
| 2026-04-30 21:06 | 53.62761 | 9.98274 | 49 ft | 58 kts | 63° |
| 2026-04-30 21:06 | 53.62712 | 9.98500 | 51 ft | 1 kts | 154° |
| 2026-04-30 21:07 | 53.62694 | 9.98508 | 51 ft | 8 kts | 171° |
| 2026-04-30 21:07 | 53.62618 | 9.98536 | 49 ft | 12 kts | 159° |
| 2026-04-30 21:07 | 53.62539 | 9.98602 | 51 ft | 13 kts | 137° |
| 2026-04-30 21:07 | 53.62525 | 9.98742 | 50 ft | 13 kts | 79° |
| 2026-04-30 21:08 | 53.62543 | 9.98902 | 51 ft | 15 kts | 79° |
| 2026-04-30 21:08 | 53.62563 | 9.99076 | 51 ft | 16 kts | 79° |
| 2026-04-30 21:08 | 53.62585 | 9.99267 | 51 ft | 19 kts | 79° |
| 2026-04-30 21:08 | 53.62613 | 9.99502 | 51 ft | 21 kts | 79° |
| 2026-04-30 21:09 | 53.62642 | 9.99748 | 51 ft | 21 kts | 75° |
| 2026-04-30 21:09 | 53.62667 | 9.99823 | 50 ft | 2 kts | 51° |
| 2026-04-30 21:09 | 53.62685 | 9.99849 | 49 ft | 5 kts | 38° |
| 2026-04-30 21:09 | 53.62719 | 9.99882 | 49 ft | 6 kts | 29° |
| 2026-04-30 21:10 | 53.62759 | 9.99919 | 48 ft | 7 kts | 29° |
| 2026-04-30 21:10 | 53.62772 | 9.99931 | 48 ft | 0 kts | 29° |
| 2026-04-30 21:11 | 53.62783 | 9.99942 | 51 ft | 4 kts | 29° |
| 2026-04-30 21:11 | 53.62830 | 9.99987 | 48 ft | 10 kts | 29° |
| 2026-04-30 21:11 | 53.62870 | 10.00026 | 48 ft | 10 kts | 32° |
| 2026-04-30 21:12 | 53.62888 | 10.00043 | 51 ft | 1 kts | 28° |
| 2026-04-30 21:12 | 53.62902 | 10.00054 | 51 ft | 5 kts | 22° |
| 2026-04-30 21:12 | 53.62945 | 10.00087 | 49 ft | 6 kts | 31° |
| 2026-04-30 21:12 | 53.62954 | 10.00116 | 51 ft | 3 kts | 80° |
| 2026-04-30 21:13 | 53.62947 | 10.00188 | 51 ft | 7 kts | 107° |
| 2026-04-30 21:13 | 53.62931 | 10.00255 | 51 ft | 0 kts | 113° |